createdAt,value
2019-05-01T00:01:32.030Z,1.00
2019-05-01T00:03:58.480Z,1.03
2019-05-01T00:06:24.835Z,0.90
2019-05-01T00:08:51.210Z,1.00
2019-05-01T00:11:17.574Z,1.00
2019-05-01T00:13:43.931Z,0.90
2019-05-01T00:16:10.220Z,0.90
2019-05-01T00:18:36.543Z,0.90
2019-05-01T00:21:02.895Z,1.27
2019-05-01T00:23:29.273Z,1.07
2019-05-01T00:25:55.650Z,1.00
2019-05-01T00:28:21.960Z,1.20
2019-05-01T00:30:48.297Z,0.80
2019-05-01T00:33:14.634Z,1.10
2019-05-01T00:35:40.973Z,0.90
2019-05-01T00:38:07.384Z,0.90
2019-05-01T00:40:33.674Z,1.20
2019-05-01T00:43:00.025Z,1.00
2019-05-01T00:45:26.384Z,1.10
2019-05-01T00:47:52.729Z,1.00
2019-05-01T00:50:19.186Z,0.80
2019-05-01T00:52:45.514Z,1.10
2019-05-01T00:55:11.851Z,0.90
2019-05-01T00:57:38.244Z,1.10
2019-05-01T01:00:04.624Z,0.90
2019-05-01T01:02:31.043Z,1.10
2019-05-01T01:04:57.339Z,0.90
2019-05-01T01:07:23.686Z,1.00
2019-05-01T01:09:50.100Z,1.00
2019-05-01T01:12:16.436Z,0.90
2019-05-01T01:14:42.768Z,1.00
2019-05-01T01:17:09.100Z,1.00
2019-05-01T01:19:35.473Z,1.00
2019-05-01T01:22:01.771Z,0.97
2019-05-01T01:24:28.118Z,1.10
2019-05-01T01:26:54.452Z,1.00
2019-05-01T01:29:20.778Z,0.83
2019-05-01T01:31:47.115Z,1.20
2019-05-01T01:34:13.491Z,1.00
2019-05-01T01:36:39.896Z,1.20
2019-05-01T01:39:06.239Z,1.10
2019-05-01T01:41:32.615Z,1.00
2019-05-01T01:43:58.996Z,1.10
2019-05-01T01:46:25.393Z,0.83
2019-05-01T01:48:51.726Z,1.20
2019-05-01T01:51:18.099Z,1.07
2019-05-01T01:53:44.522Z,0.90
2019-05-01T01:56:10.861Z,0.93
2019-05-01T01:58:37.191Z,1.10
2019-05-01T02:01:09.726Z,1.10
2019-05-01T02:03:29.916Z,1.00
2019-05-01T02:05:56.308Z,1.10
2019-05-01T02:08:22.701Z,1.00
2019-05-01T02:10:48.996Z,1.00
2019-05-01T02:13:15.337Z,1.00
2019-05-01T02:15:41.768Z,1.00
2019-05-01T02:18:08.122Z,1.00
2019-05-01T02:20:34.514Z,1.00
2019-05-01T02:23:00.835Z,1.00
2019-05-01T02:25:27.204Z,1.00
2019-05-01T02:27:53.557Z,1.10
2019-05-01T02:30:19.968Z,1.00
2019-05-01T02:32:46.357Z,1.07
2019-05-01T02:35:12.627Z,0.80
2019-05-01T02:37:38.959Z,1.07
2019-05-01T02:40:05.407Z,1.00
2019-05-01T02:42:31.745Z,1.20
2019-05-01T02:44:58.068Z,1.00
2019-05-01T02:47:24.469Z,0.90
2019-05-01T02:49:50.796Z,0.93
2019-05-01T02:52:17.173Z,1.00
2019-05-01T02:54:43.489Z,0.93
2019-05-01T02:57:09.896Z,0.90
2019-05-01T02:59:36.361Z,1.10
2019-05-01T03:02:02.770Z,0.83
2019-05-01T03:04:29.104Z,0.90
2019-05-01T03:06:55.465Z,1.10
2019-05-01T03:09:21.859Z,1.03
2019-05-01T03:11:48.218Z,1.00
2019-05-01T03:14:14.569Z,1.00
2019-05-01T03:16:40.910Z,0.90
2019-05-01T03:19:07.243Z,1.00
2019-05-01T03:21:33.595Z,0.90
2019-05-01T03:23:59.948Z,1.10
2019-05-01T03:26:26.308Z,0.90
2019-05-01T03:28:52.659Z,1.00
2019-05-01T03:31:19.018Z,0.93
2019-05-01T03:33:45.409Z,1.00
2019-05-01T03:36:11.760Z,1.00
2019-05-01T03:38:38.083Z,0.90
2019-05-01T03:41:04.417Z,0.90
2019-05-01T03:43:30.747Z,1.00
2019-05-01T03:45:57.125Z,0.83
2019-05-01T03:48:23.458Z,1.07
2019-05-01T03:50:49.812Z,1.10
2019-05-01T03:53:16.244Z,1.00
2019-05-01T03:55:42.594Z,0.93
2019-05-01T03:58:08.942Z,0.80
2019-05-01T04:00:35.368Z,1.00
2019-05-01T04:03:01.753Z,1.00
2019-05-01T04:05:28.194Z,0.90
2019-05-01T04:10:20.875Z,1.00
2019-05-01T04:12:47.179Z,0.90
2019-05-01T04:15:13.510Z,1.00
2019-05-01T04:17:39.883Z,1.00
2019-05-01T04:20:06.218Z,0.80
2019-05-01T04:22:32.556Z,1.00
2019-05-01T04:24:58.894Z,0.90
2019-05-01T04:27:25.239Z,1.00
2019-05-01T04:29:51.632Z,0.90
2019-05-01T04:32:17.951Z,0.90
2019-05-01T04:34:44.295Z,0.90
2019-05-01T04:37:10.625Z,1.00
2019-05-01T04:39:37.017Z,0.90
2019-05-01T04:42:04.540Z,0.97
2019-05-01T04:44:29.679Z,0.90
2019-05-01T04:46:56.015Z,1.00
2019-05-01T04:49:22.361Z,1.07
2019-05-01T04:51:48.701Z,0.90
2019-05-01T04:54:15.038Z,1.00
2019-05-01T04:56:41.357Z,0.90
2019-05-01T04:59:07.705Z,1.00
2019-05-01T05:01:34.093Z,1.00
2019-05-01T05:06:26.753Z,0.80
2019-05-01T05:08:53.085Z,0.90
2019-05-01T05:11:19.448Z,0.80
2019-05-01T05:13:47.065Z,0.90
2019-05-01T05:16:12.165Z,1.00
2019-05-01T05:18:38.496Z,1.03
2019-05-01T05:21:04.830Z,0.90
2019-05-01T05:23:31.164Z,0.80
2019-05-01T05:25:57.501Z,0.90
2019-05-01T05:28:23.832Z,0.93
2019-05-01T05:30:50.163Z,0.90
2019-05-01T05:33:18.682Z,0.90
2019-05-01T05:35:43.495Z,0.90
2019-05-01T05:40:36.185Z,1.00
2019-05-01T05:43:02.593Z,1.00
2019-05-01T05:45:28.931Z,0.90
2019-05-01T09:49:01.204Z,1.43
2019-05-01T09:51:27.684Z,1.17
2019-05-01T09:53:54.018Z,1.40
2019-05-01T09:58:46.750Z,1.20
2019-05-01T10:01:13.091Z,1.33
2019-05-01T10:03:39.417Z,1.07
2019-05-01T10:06:05.764Z,1.23
2019-05-01T10:08:34.723Z,1.10
2019-05-01T10:11:00.019Z,0.90
2019-05-01T10:13:24.959Z,1.07
2019-05-01T10:15:51.345Z,1.30
2019-05-01T10:18:17.671Z,0.97
2019-05-01T10:20:44.233Z,1.20
2019-05-01T10:23:13.085Z,1.10
2019-05-01T10:25:36.937Z,0.83
2019-05-01T10:28:07.312Z,0.97
2019-05-01T10:30:31.743Z,1.03
2019-05-01T10:32:57.741Z,0.83
2019-05-01T10:35:22.326Z,1.00
2019-05-01T10:37:48.676Z,1.00
2019-05-01T10:40:15.108Z,0.80
2019-05-01T10:42:41.528Z,0.90
2019-05-01T10:45:07.860Z,0.90
2019-05-01T10:47:34.222Z,0.90
2019-05-01T10:50:00.549Z,0.80
2019-05-01T10:52:26.933Z,1.00
2019-05-01T10:54:53.234Z,0.87
2019-05-01T10:57:19.605Z,1.00
2019-05-01T10:59:45.932Z,0.80
2019-05-01T11:02:12.416Z,0.80
2019-05-01T11:04:38.759Z,1.03
2019-05-01T11:07:05.062Z,0.80
2019-05-01T11:09:31.437Z,0.80
2019-05-01T11:11:57.768Z,0.90
2019-05-01T11:16:50.506Z,0.80
2019-05-01T11:19:16.783Z,0.80
2019-05-01T11:21:43.243Z,0.80
2019-05-01T11:24:09.560Z,0.83
2019-05-01T11:26:35.874Z,0.80
2019-05-01T11:29:02.205Z,0.80
2019-05-01T11:31:28.561Z,0.77
2019-05-01T11:33:54.913Z,0.80
2019-05-01T11:36:21.268Z,0.77
2019-05-01T11:38:47.620Z,0.80
2019-05-01T11:41:13.997Z,0.80
2019-05-01T11:43:40.677Z,0.80
2019-05-01T11:46:07.066Z,0.77
2019-05-01T11:48:33.359Z,0.77
2019-05-01T11:50:59.699Z,0.80
2019-05-01T11:53:26.103Z,0.70
2019-05-01T11:55:52.452Z,0.80
2019-05-01T11:58:18.786Z,0.80
2019-05-01T12:00:45.116Z,0.70
2019-05-01T12:03:11.510Z,0.80
2019-05-01T12:05:37.902Z,0.70
2019-05-01T12:08:04.234Z,0.80
2019-05-01T12:10:30.579Z,0.80
2019-05-01T12:12:56.919Z,0.70
2019-05-01T12:15:23.290Z,0.70
2019-05-01T12:17:49.606Z,0.80
2019-05-01T12:20:15.938Z,0.80
2019-05-01T12:22:42.322Z,0.70
2019-05-01T12:25:08.649Z,0.73
2019-05-01T12:27:35.034Z,0.70
2019-05-01T12:30:01.399Z,0.80
2019-05-01T12:32:27.715Z,0.77
2019-05-01T12:34:54.048Z,0.70
2019-05-01T12:37:20.417Z,0.70
2019-05-01T12:39:46.755Z,0.83
2019-05-01T12:42:13.114Z,0.80
2019-05-01T12:44:39.451Z,0.70
2019-05-01T12:47:05.794Z,0.70
2019-05-01T12:49:32.166Z,0.80
2019-05-01T12:52:09.786Z,0.70
2019-05-01T12:54:24.857Z,0.70
2019-05-01T12:56:51.204Z,0.70
2019-05-01T12:59:17.592Z,0.70
2019-05-01T13:01:43.921Z,0.70
2019-05-01T13:04:10.327Z,0.77
2019-05-01T13:06:48.335Z,0.70
2019-05-01T13:09:02.986Z,0.80
2019-05-01T13:11:29.324Z,0.80
2019-05-01T13:13:55.645Z,0.80
2019-05-01T13:16:21.975Z,0.80
2019-05-01T13:18:48.307Z,0.70
2019-05-01T13:21:14.638Z,0.80
2019-05-01T13:23:41.030Z,0.80
2019-05-01T13:26:07.402Z,0.80
2019-05-01T13:28:33.724Z,0.70
2019-05-01T13:31:00.063Z,0.70
2019-05-01T13:33:27.859Z,0.70
2019-05-01T13:35:54.224Z,0.70
2019-05-01T13:38:20.556Z,0.70
2019-05-01T13:40:46.900Z,0.70
2019-05-01T13:43:13.222Z,0.70
2019-05-01T13:45:39.579Z,0.70
2019-05-01T13:48:05.907Z,0.70
2019-05-01T13:50:32.255Z,0.70
2019-05-01T13:52:58.573Z,0.70
2019-05-01T13:55:24.905Z,0.70
2019-05-01T13:57:51.244Z,0.83
2019-05-01T14:00:17.596Z,0.70
2019-05-01T14:02:43.950Z,0.70
2019-05-01T14:05:10.302Z,0.70
2019-05-01T14:07:36.671Z,0.70
2019-05-01T14:10:02.957Z,0.80
2019-05-01T14:12:29.358Z,0.80
2019-05-01T14:17:22.038Z,0.80
2019-05-01T14:19:48.405Z,0.70
2019-05-01T14:22:14.774Z,0.70
2019-05-01T14:24:41.134Z,0.77
2019-05-01T14:27:07.807Z,0.80
2019-05-01T14:29:33.867Z,0.70
2019-05-01T14:32:00.242Z,0.80
2019-05-01T14:34:26.628Z,0.80
2019-05-01T14:36:52.912Z,0.80
2019-05-01T14:39:19.252Z,0.77
2019-05-01T14:41:45.637Z,0.70
2019-05-01T14:44:11.967Z,0.70
2019-05-01T14:46:38.303Z,0.90
2019-05-01T14:49:04.645Z,0.70
2019-05-01T14:51:30.974Z,0.80
2019-05-01T14:53:57.356Z,0.70
2019-05-01T14:56:23.687Z,0.70
2019-05-01T14:58:50.046Z,0.70
2019-05-01T15:01:16.384Z,0.77
2019-05-01T15:03:43.973Z,0.73
2019-05-01T15:06:09.109Z,0.70
2019-05-01T15:08:35.485Z,0.80
2019-05-01T15:11:01.854Z,0.80
2019-05-01T15:13:28.209Z,0.70
2019-05-01T15:15:54.536Z,0.80
2019-05-01T15:18:20.887Z,0.80
2019-05-01T15:20:47.304Z,0.70
2019-05-01T15:23:13.698Z,0.80
2019-05-01T15:25:40.026Z,0.70
2019-05-01T15:28:06.371Z,0.70
2019-05-01T15:30:32.695Z,0.70
2019-05-01T15:32:59.039Z,0.80
2019-05-01T15:35:25.363Z,0.73
2019-05-01T15:37:56.767Z,0.70
2019-05-01T15:40:18.100Z,0.80
2019-05-01T15:42:44.428Z,0.70
2019-05-01T15:47:37.200Z,0.80
2019-05-01T15:50:03.538Z,0.73
2019-05-01T15:52:29.992Z,0.80
2019-05-01T15:54:56.286Z,0.80
2019-05-01T15:57:22.613Z,0.80
2019-05-01T15:59:48.983Z,0.80
2019-05-01T16:02:15.312Z,0.70
2019-05-01T16:04:41.705Z,0.80
2019-05-01T16:07:07.978Z,0.80
2019-05-01T16:09:34.338Z,0.80
2019-05-01T16:12:00.664Z,0.80
2019-05-01T16:14:27.033Z,0.70
2019-05-01T16:16:57.834Z,0.80
2019-05-01T16:19:24.167Z,0.70
2019-05-01T16:21:50.522Z,0.80
2019-05-01T16:24:16.893Z,0.77
2019-05-01T16:26:43.291Z,0.80
2019-05-01T16:29:09.689Z,0.70
2019-05-01T16:31:35.992Z,0.80
2019-05-01T16:34:02.391Z,0.80
2019-05-01T16:36:28.745Z,0.70
2019-05-01T16:38:55.077Z,0.80
2019-05-01T16:41:21.476Z,0.70
2019-05-01T16:43:47.781Z,0.80
2019-05-01T16:46:14.112Z,0.80
2019-05-01T16:48:40.466Z,0.80
2019-05-01T16:51:06.812Z,0.80
2019-05-01T16:53:33.208Z,0.80
2019-05-01T16:55:59.532Z,0.80
2019-05-01T16:58:25.893Z,0.90
2019-05-01T17:00:52.274Z,0.80
2019-05-01T17:03:18.604Z,0.80
2019-05-01T17:05:44.992Z,0.70
2019-05-01T17:08:11.323Z,0.80
2019-05-01T17:10:37.760Z,0.80
2019-05-01T17:13:04.129Z,0.80
2019-05-01T17:15:30.456Z,0.80
2019-05-01T17:17:56.820Z,0.80
2019-05-01T17:20:24.368Z,0.70
2019-05-01T17:22:50.744Z,0.80
2019-05-01T17:25:15.882Z,0.90
2019-05-01T17:27:42.229Z,0.80
2019-05-01T17:30:08.571Z,0.80
2019-05-01T17:32:34.911Z,0.70
2019-05-01T17:35:01.922Z,0.80
2019-05-01T17:37:27.631Z,0.77
2019-05-01T17:39:54.055Z,0.80
2019-05-01T17:42:20.467Z,0.80
2019-05-01T17:44:46.739Z,0.77
2019-05-01T17:47:13.125Z,0.73
2019-05-01T17:49:41.107Z,0.80
2019-05-01T17:52:05.780Z,0.83
2019-05-01T17:54:32.201Z,0.80
2019-05-01T17:56:58.545Z,0.80
2019-05-01T17:59:24.873Z,0.90
2019-05-01T18:01:51.210Z,0.80
2019-05-01T18:04:17.660Z,0.83
2019-05-01T18:06:46.556Z,0.80
2019-05-01T18:09:13.671Z,0.70
2019-05-01T18:11:36.640Z,0.80
2019-05-01T18:14:05.573Z,0.90
2019-05-01T18:16:29.289Z,0.80
2019-05-01T18:18:55.656Z,0.80
2019-05-01T18:21:22.021Z,0.80
2019-05-01T18:23:49.448Z,0.80
2019-05-01T18:26:14.711Z,0.70
2019-05-01T18:28:41.027Z,0.83
2019-05-01T18:31:07.406Z,0.90
2019-05-01T18:33:33.777Z,0.90
2019-05-01T18:36:00.069Z,0.80
2019-05-01T18:38:26.492Z,0.80
2019-05-01T18:40:52.832Z,0.90
2019-05-01T18:43:19.133Z,0.70
2019-05-01T18:45:45.485Z,0.70
2019-05-01T18:48:11.809Z,0.80
2019-05-01T18:50:38.261Z,0.80
2019-05-01T18:53:06.797Z,0.90
2019-05-01T18:55:31.509Z,0.80
2019-05-01T18:57:57.323Z,0.80
2019-05-01T19:00:23.638Z,0.90
2019-05-01T19:02:50.020Z,0.80
2019-05-01T19:05:16.311Z,0.80
2019-05-01T19:07:42.664Z,0.80
2019-05-01T19:10:09.051Z,0.90
2019-05-01T19:12:35.425Z,0.80
2019-05-01T19:15:05.349Z,0.90
2019-05-01T19:17:28.073Z,0.90
2019-05-01T19:19:54.459Z,0.90
2019-05-01T19:22:20.798Z,0.80
2019-05-01T19:24:47.208Z,0.80
2019-05-01T19:27:14.299Z,0.90
2019-05-01T19:29:39.858Z,0.90
2019-05-01T19:32:06.198Z,0.90
2019-05-01T19:34:32.565Z,0.90
2019-05-01T19:36:58.937Z,0.80
2019-05-01T19:39:25.283Z,0.80
2019-05-01T19:41:54.433Z,0.80
2019-05-01T19:44:18.859Z,0.90
2019-05-01T19:46:44.340Z,1.00
2019-05-01T19:49:10.680Z,0.90
2019-05-01T19:51:37.024Z,0.80
2019-05-01T19:54:03.426Z,0.90
2019-05-01T19:56:29.808Z,0.80
2019-05-01T19:58:56.187Z,0.90
2019-05-01T20:01:22.535Z,0.80
2019-05-01T20:03:48.821Z,0.90
2019-05-01T20:06:15.165Z,0.80
2019-05-01T20:08:41.563Z,1.00
2019-05-01T20:11:09.661Z,0.90
2019-05-01T20:13:34.241Z,0.83
2019-05-01T20:16:00.596Z,0.90
2019-05-01T20:18:26.923Z,1.00
2019-05-01T20:20:53.250Z,0.90
2019-05-01T20:23:19.631Z,1.00
2019-05-01T20:28:12.349Z,0.90
2019-05-01T20:30:38.710Z,0.90
2019-05-01T20:33:08.058Z,0.90
2019-05-01T20:35:34.139Z,0.90
2019-05-01T20:37:57.934Z,0.80
2019-05-01T20:40:24.286Z,0.90
2019-05-01T20:42:50.623Z,0.80
2019-05-01T20:45:18.335Z,1.10
2019-05-01T20:47:46.079Z,0.90
2019-05-01T20:50:09.653Z,0.87
2019-05-01T20:52:36.017Z,1.10
2019-05-01T20:55:02.356Z,0.90
2019-05-01T20:57:28.723Z,0.93
2019-05-01T20:59:55.057Z,0.70
2019-05-01T21:02:21.393Z,0.90
2019-05-01T21:04:47.798Z,0.90
2019-05-01T21:07:15.586Z,0.80
2019-05-01T21:09:47.395Z,1.10
2019-05-01T21:12:06.858Z,0.93
2019-05-01T21:14:33.193Z,1.00
2019-05-01T21:16:59.524Z,1.10
2019-05-01T21:21:53.635Z,0.80
2019-05-01T21:24:18.609Z,1.00
2019-05-01T21:26:44.936Z,0.90
2019-05-01T21:29:11.270Z,1.00
2019-05-01T21:31:37.622Z,0.80
2019-05-01T21:34:04.339Z,0.90
2019-05-01T21:36:30.354Z,1.13
2019-05-01T21:38:56.646Z,0.97
2019-05-01T21:41:23.004Z,0.90
2019-05-01T21:43:49.325Z,0.93
2019-05-01T21:46:15.714Z,0.97
2019-05-01T21:48:43.575Z,0.97
2019-05-01T21:51:08.388Z,1.00
2019-05-01T21:53:37.519Z,1.10
2019-05-01T21:56:02.249Z,1.00
2019-05-01T21:58:30.165Z,0.90
2019-05-01T22:00:55.119Z,0.90
2019-05-01T22:03:21.568Z,1.00
2019-05-01T22:05:46.515Z,0.90
2019-05-01T22:08:12.885Z,0.93
2019-05-01T22:10:51.356Z,0.90
2019-05-01T22:13:05.619Z,1.10
2019-05-01T22:15:31.947Z,1.00
2019-05-01T22:17:58.339Z,1.00
2019-05-01T22:20:24.669Z,1.00
2019-05-01T22:22:51.043Z,1.10
2019-05-01T22:25:17.427Z,1.23
2019-05-01T22:27:43.771Z,1.00
2019-05-01T22:30:10.963Z,1.17
2019-05-01T22:32:36.491Z,1.10
2019-05-01T22:35:02.806Z,1.00
2019-05-01T22:37:29.130Z,1.00
2019-05-01T22:39:55.528Z,1.00
2019-05-01T22:42:21.820Z,1.00
2019-05-01T22:44:48.230Z,0.90
2019-05-01T22:47:14.966Z,0.90
2019-05-01T22:49:40.961Z,1.20
2019-05-01T22:52:07.303Z,1.00
2019-05-01T22:54:33.633Z,1.20
2019-05-01T22:56:59.971Z,1.10
2019-05-01T22:59:26.302Z,1.20
2019-05-01T23:01:53.058Z,1.20
2019-05-01T23:04:19.065Z,1.10
2019-05-01T23:06:45.372Z,1.20
2019-05-01T23:09:11.705Z,1.20
2019-05-01T23:11:38.050Z,1.03
2019-05-01T23:14:04.381Z,1.17
2019-05-01T23:16:30.760Z,1.20
2019-05-01T23:18:57.090Z,1.20
2019-05-01T23:21:23.422Z,1.33
2019-05-01T23:23:49.749Z,1.20
2019-05-01T23:26:16.742Z,1.00
2019-05-01T23:28:42.447Z,1.20
2019-05-01T23:31:08.869Z,1.10
2019-05-01T23:33:35.312Z,1.17
2019-05-01T23:36:01.656Z,1.20
2019-05-01T23:38:28.044Z,1.20
2019-05-01T23:40:54.414Z,1.10
2019-05-01T23:43:22.956Z,1.20
2019-05-01T23:45:47.024Z,1.10
2019-05-01T23:48:13.410Z,1.10
2019-05-01T23:50:39.685Z,1.20
2019-05-01T23:53:08.992Z,1.20
2019-05-01T23:55:32.425Z,1.30
2019-05-01T23:57:58.841Z,1.20
